createdAt,value
2019-02-19T00:01:04.787Z,24.33
2019-02-19T00:03:32.857Z,24.20
2019-02-19T00:06:00.907Z,22.03
2019-02-19T00:08:28.899Z,21.97
2019-02-19T00:10:56.833Z,24.60
2019-02-19T00:13:24.789Z,25.87
2019-02-19T00:15:52.691Z,21.80
2019-02-19T00:18:20.646Z,25.50
2019-02-19T00:20:48.640Z,28.60
2019-02-19T00:23:16.763Z,27.43
2019-02-19T00:25:44.763Z,27.30
2019-02-19T00:28:12.714Z,26.03
2019-02-19T00:30:40.766Z,26.67
2019-02-19T00:33:08.812Z,28.00
2019-02-19T00:35:36.759Z,26.33
2019-02-19T00:38:06.348Z,25.87
2019-02-19T00:40:34.473Z,28.43
2019-02-19T00:43:02.445Z,25.47
2019-02-19T00:45:30.443Z,24.30
2019-02-19T00:47:58.447Z,27.87
2019-02-19T00:50:26.381Z,24.10
2019-02-19T00:52:54.392Z,26.70
2019-02-19T00:55:22.319Z,23.47
2019-02-19T00:57:50.254Z,29.27
2019-02-19T01:00:18.311Z,27.40
2019-02-19T01:02:46.397Z,29.17
2019-02-19T01:05:14.608Z,27.57
2019-02-19T01:07:42.543Z,25.53
2019-02-19T01:10:10.559Z,27.47
2019-02-19T01:12:38.556Z,23.80
2019-02-19T01:15:07.366Z,26.23
2019-02-19T01:17:35.403Z,25.30
2019-02-19T01:20:03.340Z,28.80
2019-02-19T01:22:31.313Z,25.70
2019-02-19T01:24:59.311Z,27.23
2019-02-19T01:27:27.275Z,26.37
2019-02-19T01:29:55.221Z,25.40
2019-02-19T01:32:23.215Z,24.83
2019-02-19T01:34:51.164Z,28.70
2019-02-19T01:37:19.158Z,25.10
2019-02-19T01:39:47.886Z,28.60
2019-02-19T01:42:15.916Z,22.90
2019-02-19T01:44:43.947Z,26.00
2019-02-19T01:47:12.352Z,26.97
2019-02-19T01:49:40.387Z,25.23
2019-02-19T01:52:08.366Z,27.27
2019-02-19T01:54:36.367Z,25.50
2019-02-19T01:57:04.306Z,25.33
2019-02-19T01:59:32.231Z,28.37
2019-02-19T02:02:00.266Z,27.17
2019-02-19T02:04:28.243Z,25.40
2019-02-19T02:06:56.164Z,28.23
2019-02-19T02:09:24.116Z,22.80
2019-02-19T02:11:52.107Z,28.07
2019-02-19T02:14:20.123Z,23.30
2019-02-19T02:16:48.054Z,24.53
2019-02-19T02:19:16.543Z,25.03
2019-02-19T02:21:44.543Z,24.87
2019-02-19T02:24:12.540Z,25.43
2019-02-19T02:26:40.510Z,27.83
2019-02-19T02:29:08.514Z,23.83
2019-02-19T02:31:36.499Z,25.27
2019-02-19T02:34:04.559Z,24.47
2019-02-19T02:36:32.490Z,28.83
2019-02-19T02:39:00.465Z,27.47
2019-02-19T02:41:28.494Z,30.30
2019-02-19T02:43:56.495Z,29.30
2019-02-19T02:46:24.501Z,25.43
2019-02-19T02:48:52.491Z,24.40
2019-02-19T02:51:20.507Z,31.60
2019-02-19T02:53:48.576Z,24.03
2019-02-19T02:56:16.546Z,29.97
2019-02-19T02:58:44.556Z,24.30
2019-02-19T03:01:12.588Z,24.83
2019-02-19T03:03:40.517Z,32.23
2019-02-19T03:06:45.461Z,31.10
2019-02-19T03:09:13.348Z,27.73
2019-02-19T03:11:41.285Z,28.77
2019-02-19T03:14:09.240Z,33.90
2019-02-19T03:16:37.224Z,33.33
2019-02-19T03:19:05.159Z,29.17
2019-02-19T03:21:33.097Z,28.60
2019-02-19T03:24:01.138Z,31.67
2019-02-19T03:26:29.065Z,33.40
2019-02-19T03:28:57.135Z,30.00
2019-02-19T03:31:25.114Z,29.23
2019-02-19T03:33:53.052Z,29.97
2019-02-19T03:36:20.983Z,35.03
2019-02-19T03:38:49.012Z,31.83
2019-02-19T03:41:17.059Z,32.07
2019-02-19T03:43:44.983Z,31.97
2019-02-19T03:46:13.007Z,34.50
2019-02-19T03:48:40.987Z,34.70
2019-02-19T03:51:08.933Z,33.20
2019-02-19T03:53:36.940Z,34.13
2019-02-19T03:56:04.930Z,40.43
2019-02-19T03:58:32.940Z,33.47
2019-02-19T04:01:00.970Z,31.27
2019-02-19T04:03:29.277Z,33.77
2019-02-19T04:05:57.293Z,37.07
2019-02-19T04:08:25.309Z,40.87
2019-02-19T04:10:53.344Z,45.63
2019-02-19T04:13:21.255Z,37.60
2019-02-19T04:15:49.637Z,38.47
2019-02-19T04:18:17.678Z,36.87
2019-02-19T04:20:45.703Z,33.73
2019-02-19T04:23:13.617Z,39.10
2019-02-19T04:25:41.545Z,37.33
2019-02-19T04:28:09.540Z,44.30
2019-02-19T04:30:37.541Z,40.70
2019-02-19T04:33:05.467Z,40.17
2019-02-19T04:35:33.380Z,39.27
2019-02-19T04:38:01.357Z,44.13
2019-02-19T04:40:29.328Z,42.03
2019-02-19T04:42:57.277Z,40.80
2019-02-19T04:45:25.259Z,42.30
2019-02-19T04:47:53.163Z,44.27
2019-02-19T04:50:21.063Z,51.13
2019-02-19T04:52:48.979Z,37.03
2019-02-19T04:55:16.995Z,43.03
2019-02-19T04:57:44.982Z,46.00
2019-02-19T05:00:12.980Z,48.97
2019-02-19T05:02:40.987Z,43.70
2019-02-19T05:05:09.004Z,46.83
2019-02-19T05:07:37.004Z,42.80
2019-02-19T05:10:05.156Z,42.90
2019-02-19T05:12:33.138Z,46.23
2019-02-19T05:15:01.073Z,50.60
2019-02-19T05:17:29.059Z,38.97
2019-02-19T05:19:57.105Z,48.80
2019-02-19T05:22:25.057Z,51.27
2019-02-19T05:24:53.091Z,44.43
2019-02-19T05:27:21.108Z,44.33
2019-02-19T05:29:49.108Z,45.17
2019-02-19T05:32:17.162Z,39.10
2019-02-19T05:34:45.107Z,41.17
2019-02-19T05:37:13.152Z,37.03
2019-02-19T05:39:41.080Z,41.50
2019-02-19T05:42:09.056Z,40.90
2019-02-19T05:44:37.047Z,39.77
2019-02-19T05:47:04.983Z,41.47
2019-02-19T05:49:32.911Z,36.27
2019-02-19T05:52:00.830Z,36.10
2019-02-19T05:54:28.811Z,39.40
2019-02-19T05:56:56.743Z,40.87
2019-02-19T05:59:24.695Z,39.50
2019-02-19T06:01:52.740Z,47.10
2019-02-19T06:04:20.760Z,48.90
2019-02-19T06:06:48.714Z,49.43
2019-02-19T06:09:16.731Z,44.03
2019-02-19T06:11:44.716Z,51.47
2019-02-19T06:14:12.666Z,52.57
2019-02-19T06:16:40.671Z,54.60
2019-02-19T06:19:08.709Z,62.77
2019-02-19T06:21:36.641Z,62.47
2019-02-19T06:24:04.987Z,63.80
2019-02-19T06:26:32.932Z,61.27
2019-02-19T06:29:00.900Z,65.90
2019-02-19T06:31:28.930Z,68.03
2019-02-19T06:33:56.867Z,67.23
2019-02-19T06:36:24.800Z,58.03
2019-02-19T06:38:52.841Z,61.70
2019-02-19T06:41:20.842Z,63.60
2019-02-19T06:43:48.847Z,63.57
2019-02-19T06:46:16.795Z,68.37
2019-02-19T06:48:44.820Z,66.17
2019-02-19T06:51:12.855Z,61.10
2019-02-19T06:53:40.865Z,61.90
2019-02-19T06:56:08.872Z,70.70
2019-02-19T06:58:36.873Z,56.03
2019-02-19T07:01:04.884Z,64.60
2019-02-19T07:03:39.184Z,55.43
2019-02-19T07:06:07.195Z,65.63
2019-02-19T07:08:35.220Z,64.33
2019-02-19T07:11:03.168Z,60.83
2019-02-19T07:13:31.091Z,66.47
2019-02-19T07:15:58.988Z,59.23
2019-02-19T07:18:27.064Z,56.50
2019-02-19T07:20:55.048Z,54.27
2019-02-19T07:23:22.978Z,53.07
2019-02-19T07:25:50.955Z,51.97
2019-02-19T07:28:18.936Z,54.33
2019-02-19T07:30:46.975Z,57.20
2019-02-19T07:33:14.933Z,60.53
2019-02-19T07:35:42.982Z,54.07
2019-02-19T07:38:10.959Z,50.00
2019-02-19T07:40:38.899Z,55.67
2019-02-19T07:43:06.940Z,54.13
2019-02-19T07:45:34.943Z,67.70
2019-02-19T07:48:02.904Z,58.60
2019-02-19T07:50:30.819Z,56.50
2019-02-19T07:52:58.831Z,57.50
2019-02-19T07:55:26.858Z,61.20
2019-02-19T07:57:54.835Z,57.53
2019-02-19T08:00:22.771Z,56.83
2019-02-19T08:02:50.713Z,49.20
2019-02-19T08:05:19.822Z,51.53
2019-02-19T08:07:47.844Z,54.80
2019-02-19T08:10:15.812Z,49.23
2019-02-19T08:12:43.739Z,45.67
2019-02-19T08:15:11.695Z,45.73
2019-02-19T08:17:39.665Z,45.00
2019-02-19T08:20:15.360Z,45.80
2019-02-19T08:22:37.289Z,47.80
2019-02-19T08:25:05.332Z,43.60
2019-02-19T08:27:33.333Z,47.13
2019-02-19T08:30:01.340Z,41.57
2019-02-19T08:32:29.315Z,42.20
2019-02-19T08:34:57.403Z,46.23
2019-02-19T08:37:25.368Z,38.27
2019-02-19T08:39:53.382Z,38.13
2019-02-19T08:42:21.423Z,35.17
2019-02-19T08:44:49.324Z,37.07
2019-02-19T08:47:17.353Z,38.67
2019-02-19T08:49:45.327Z,30.00
2019-02-19T08:52:13.257Z,28.73
2019-02-19T08:54:41.207Z,35.23
2019-02-19T08:57:09.205Z,30.03
2019-02-19T08:59:37.212Z,36.73
2019-02-19T09:02:05.260Z,29.60
2019-02-19T09:04:33.318Z,27.73
2019-02-19T09:07:01.381Z,22.77
2019-02-19T09:09:29.413Z,25.90
2019-02-19T09:11:57.420Z,25.07
2019-02-19T09:14:25.395Z,25.67
2019-02-19T09:16:53.356Z,27.53
2019-02-19T09:19:21.290Z,25.97
2019-02-19T09:21:51.457Z,22.50
2019-02-19T09:24:19.546Z,22.13
2019-02-19T09:26:47.595Z,21.07
2019-02-19T09:29:15.628Z,21.53
2019-02-19T09:31:43.637Z,20.60
2019-02-19T09:34:11.575Z,18.73
2019-02-19T09:36:39.508Z,19.20
2019-02-19T09:39:07.407Z,23.93
2019-02-19T09:41:35.407Z,21.63
2019-02-19T09:44:03.466Z,17.23
2019-02-19T09:46:31.510Z,17.43
2019-02-19T09:48:59.592Z,17.70
2019-02-19T09:51:27.566Z,20.97
2019-02-19T09:53:55.590Z,22.67
2019-02-19T09:56:23.527Z,12.93
2019-02-19T09:58:51.537Z,18.27
2019-02-19T10:01:19.593Z,16.47
2019-02-19T10:03:47.544Z,13.77
2019-02-19T10:06:15.476Z,16.57
2019-02-19T10:08:43.401Z,20.50
2019-02-19T10:11:11.345Z,16.53
2019-02-19T10:13:39.341Z,17.80
2019-02-19T10:16:07.285Z,15.63
2019-02-19T10:18:35.280Z,17.27
2019-02-19T10:21:03.251Z,16.00
2019-02-19T10:23:31.203Z,16.97
2019-02-19T10:25:59.190Z,18.27
2019-02-19T10:28:27.083Z,14.13
2019-02-19T10:30:55.090Z,14.20
2019-02-19T10:33:23.095Z,14.10
2019-02-19T10:35:51.132Z,13.73
2019-02-19T10:38:19.238Z,13.83
2019-02-19T10:40:47.275Z,16.87
2019-02-19T10:43:15.309Z,13.50
2019-02-19T10:45:43.371Z,15.27
2019-02-19T10:48:18.821Z,17.37
2019-02-19T10:50:40.966Z,14.43
2019-02-19T10:53:08.957Z,15.17
2019-02-19T10:55:37.008Z,14.47
2019-02-19T10:58:05.063Z,15.83
2019-02-19T11:00:33.176Z,13.30
2019-02-19T11:03:01.176Z,19.63
2019-02-19T11:05:29.182Z,16.50
2019-02-19T11:07:57.229Z,12.23
2019-02-19T11:10:25.229Z,12.73
2019-02-19T11:12:53.348Z,16.30
2019-02-19T11:15:21.360Z,17.30
2019-02-19T11:17:49.452Z,14.60
2019-02-19T11:20:18.615Z,12.00
2019-02-19T11:22:46.639Z,12.20
2019-02-19T11:25:14.561Z,11.90
2019-02-19T11:27:42.488Z,11.37
2019-02-19T11:30:11.677Z,14.43
2019-02-19T11:32:39.663Z,12.33
2019-02-19T11:35:08.002Z,12.07
2019-02-19T11:37:37.375Z,11.97
2019-02-19T11:40:06.174Z,10.83
2019-02-19T11:42:34.182Z,15.60
2019-02-19T11:45:02.152Z,13.27
2019-02-19T11:47:30.110Z,12.47
2019-02-19T11:49:58.103Z,12.30
2019-02-19T11:52:26.100Z,9.77
2019-02-19T11:54:54.091Z,13.63
2019-02-19T11:57:22.097Z,11.97
2019-02-19T11:59:50.046Z,13.07
2019-02-19T12:02:18.235Z,15.23
2019-02-19T12:04:46.294Z,8.57
2019-02-19T12:07:14.293Z,11.20
2019-02-19T12:09:42.236Z,11.43
2019-02-19T12:12:10.206Z,11.77
2019-02-19T12:14:38.132Z,10.03
2019-02-19T12:17:06.173Z,12.63
2019-02-19T12:19:34.195Z,10.10
2019-02-19T12:22:02.094Z,10.00
2019-02-19T12:24:30.028Z,10.73
2019-02-19T12:26:58.041Z,11.87
2019-02-19T12:29:26.169Z,11.07
2019-02-19T12:31:54.300Z,11.50
2019-02-19T12:34:22.316Z,9.37
2019-02-19T12:36:50.336Z,9.27
2019-02-19T12:39:18.368Z,11.73
2019-02-19T12:41:46.458Z,11.53
2019-02-19T12:44:14.500Z,11.83
2019-02-19T12:46:42.496Z,10.80
2019-02-19T12:49:10.568Z,10.47
2019-02-19T12:51:38.536Z,8.43
2019-02-19T12:54:06.481Z,9.87
2019-02-19T12:56:34.405Z,12.07
2019-02-19T12:59:03.673Z,11.90
2019-02-19T13:01:31.667Z,9.17
2019-02-19T13:03:59.601Z,8.57
2019-02-19T13:06:27.610Z,10.97
2019-02-19T13:08:57.971Z,10.67
2019-02-19T13:11:25.907Z,10.40
2019-02-19T13:13:53.888Z,9.07
2019-02-19T13:16:22.805Z,9.63
2019-02-19T13:18:50.823Z,10.07
2019-02-19T13:21:18.788Z,9.80
2019-02-19T13:23:46.811Z,11.23
2019-02-19T13:26:14.755Z,8.20
2019-02-19T13:28:44.206Z,8.30
2019-02-19T13:31:12.269Z,11.60
2019-02-19T13:33:40.217Z,10.07
2019-02-19T13:36:08.477Z,10.63
2019-02-19T13:38:36.548Z,8.63
2019-02-19T13:41:04.643Z,8.53
2019-02-19T13:43:32.699Z,7.77
2019-02-19T13:46:00.770Z,9.03
2019-02-19T13:48:28.746Z,8.20
2019-02-19T13:50:57.332Z,10.07
2019-02-19T13:53:32.400Z,9.80
2019-02-19T13:56:01.869Z,10.10
2019-02-19T13:58:29.986Z,8.13
2019-02-19T14:00:57.968Z,9.37
2019-02-19T14:03:25.879Z,9.57
2019-02-19T14:05:53.855Z,8.13
2019-02-19T14:08:21.827Z,9.90
2019-02-19T14:10:49.872Z,7.67
2019-02-19T14:13:17.897Z,8.67
2019-02-19T14:16:01.324Z,10.10
2019-02-19T14:18:52.828Z,8.77
2019-02-19T14:21:40.228Z,9.03
2019-02-19T14:24:30.590Z,9.67
2019-02-19T14:27:16.320Z,6.00
2019-02-19T14:30:06.355Z,11.10
2019-02-19T14:32:53.512Z,6.50
2019-02-19T14:35:39.203Z,8.17
2019-02-19T14:38:32.131Z,8.03
2019-02-19T14:41:20.308Z,10.60
2019-02-19T14:44:08.350Z,9.60
2019-02-19T14:47:07.149Z,11.37
2019-02-19T14:50:09.294Z,10.50
2019-02-19T14:53:03.707Z,12.20
2019-02-19T14:55:45.886Z,10.53
2019-02-19T14:58:42.072Z,10.57
2019-02-19T15:01:28.215Z,11.80
2019-02-19T15:04:27.149Z,13.93
2019-02-19T15:07:29.115Z,11.13
2019-02-19T15:10:36.760Z,12.17
2019-02-19T15:13:22.586Z,12.70
2019-02-19T15:16:08.030Z,11.77
2019-02-19T15:18:53.460Z,9.70
2019-02-19T15:21:46.424Z,12.50
2019-02-19T15:24:31.876Z,10.10
2019-02-19T15:27:08.992Z,10.27
2019-02-19T15:29:55.989Z,11.47
2019-02-19T15:32:43.019Z,10.88
2019-02-19T15:35:38.948Z,16.07
2019-02-19T15:38:34.871Z,11.17
2019-02-19T15:41:20.715Z,10.30
2019-02-19T15:44:06.396Z,10.37
2019-02-19T15:46:41.638Z,8.17
2019-02-19T15:49:34.473Z,7.07
2019-02-19T15:52:24.651Z,7.37
2019-02-19T15:55:11.104Z,6.30
2019-02-19T15:58:04.554Z,6.70
2019-02-19T16:00:41.445Z,5.97
2019-02-19T16:03:26.989Z,5.73
2019-02-19T16:06:14.019Z,3.40
2019-02-19T16:09:16.046Z,7.03
2019-02-19T16:11:51.787Z,6.67
2019-02-19T16:14:37.438Z,4.17
2019-02-19T16:17:23.020Z,6.00
2019-02-19T16:19:58.844Z,3.57
2019-02-19T16:22:48.724Z,5.57
2019-02-19T16:25:35.737Z,5.83
2019-02-19T16:28:31.981Z,6.03
2019-02-19T16:31:19.178Z,4.97
2019-02-19T16:34:09.330Z,4.83
2019-02-19T16:37:11.323Z,5.50
2019-02-19T16:39:49.462Z,7.03
2019-02-19T16:42:51.623Z,4.60
2019-02-19T16:45:44.843Z,6.60
2019-02-19T16:48:31.969Z,6.73
2019-02-19T16:51:10.365Z,5.50
2019-02-19T16:53:55.800Z,5.03
2019-02-19T16:56:54.565Z,4.80
2019-02-19T16:59:40.055Z,4.33
2019-02-19T17:02:39.269Z,6.90
2019-02-19T17:05:31.921Z,5.00
2019-02-19T17:08:24.594Z,4.27
2019-02-19T17:11:20.541Z,2.97
2019-02-19T17:14:06.361Z,4.73
2019-02-19T17:16:51.973Z,6.43
2019-02-19T17:19:30.723Z,5.63
2019-02-19T17:22:16.508Z,6.87
2019-02-19T17:24:58.497Z,2.97
2019-02-19T17:27:45.501Z,3.40
2019-02-19T17:30:44.421Z,2.90
2019-02-19T17:33:43.738Z,4.80
2019-02-19T17:36:39.974Z,4.77
2019-02-19T17:39:22.692Z,2.67
2019-02-19T17:42:18.422Z,5.57
2019-02-19T17:45:08.024Z,3.97
2019-02-19T17:48:13.004Z,4.30
2019-02-19T17:51:05.692Z,4.77
2019-02-19T17:53:51.117Z,3.83
2019-02-19T17:56:36.660Z,3.73
2019-02-19T17:59:22.144Z,6.23
2019-02-19T18:01:57.090Z,5.70
2019-02-19T18:04:31.995Z,5.27
2019-02-19T18:07:22.145Z,5.00
2019-02-19T18:09:58.360Z,5.97
2019-02-19T18:12:47.061Z,5.67
2019-02-19T18:15:32.507Z,3.53
2019-02-19T18:18:08.756Z,4.77
2019-02-19T18:20:36.741Z,3.83
2019-02-19T18:23:04.792Z,3.20
2019-02-19T18:25:32.876Z,4.17
2019-02-19T18:28:01.346Z,4.47
2019-02-19T18:30:29.390Z,3.30
2019-02-19T18:32:57.863Z,3.30
2019-02-19T18:35:25.813Z,4.37
2019-02-19T18:37:54.120Z,3.43
2019-02-19T18:40:22.188Z,4.70
2019-02-19T18:42:50.365Z,3.17
2019-02-19T18:45:24.437Z,4.50
2019-02-19T18:47:52.552Z,4.07
2019-02-19T18:50:20.694Z,3.23
2019-02-19T18:52:48.689Z,3.67
2019-02-19T18:55:16.748Z,3.87
2019-02-19T18:57:44.671Z,4.50
2019-02-19T19:00:12.665Z,3.90
2019-02-19T19:02:40.664Z,4.53
2019-02-19T19:05:08.672Z,5.10
2019-02-19T19:07:36.683Z,3.93
2019-02-19T19:10:04.824Z,4.57
2019-02-19T19:12:32.920Z,4.40
2019-02-19T19:15:00.955Z,2.40
2019-02-19T19:17:31.305Z,4.73
2019-02-19T19:19:59.340Z,4.43
2019-02-19T19:22:27.393Z,3.63
2019-02-19T19:24:55.470Z,5.33
2019-02-19T19:27:23.434Z,6.87
2019-02-19T19:29:51.412Z,4.77
2019-02-19T19:32:20.398Z,4.10
2019-02-19T19:34:48.411Z,4.03
2019-02-19T19:37:16.508Z,5.73
2019-02-19T19:39:44.460Z,5.93
2019-02-19T19:42:12.544Z,3.83
2019-02-19T19:44:40.584Z,9.10
2019-02-19T19:47:08.632Z,7.70
2019-02-19T19:49:36.848Z,5.83
2019-02-19T19:52:05.152Z,7.60
2019-02-19T19:54:33.077Z,5.27
2019-02-19T19:57:01.119Z,3.57
2019-02-19T19:59:29.264Z,4.80
2019-02-19T20:02:00.601Z,7.20
2019-02-19T20:04:28.664Z,6.00
2019-02-19T20:06:56.737Z,4.90
2019-02-19T20:09:24.802Z,6.73
2019-02-19T20:11:52.901Z,3.70
2019-02-19T20:14:21.257Z,5.23
2019-02-19T20:16:49.353Z,6.33
2019-02-19T20:19:18.177Z,5.47
2019-02-19T20:21:46.293Z,6.73
2019-02-19T20:24:14.360Z,7.00
2019-02-19T20:26:42.466Z,4.93
2019-02-19T20:29:10.574Z,6.27
2019-02-19T20:31:38.727Z,8.80
2019-02-19T20:34:10.869Z,5.97
2019-02-19T20:36:38.997Z,7.63
2019-02-19T20:39:07.593Z,6.50
2019-02-19T20:41:35.848Z,9.00
2019-02-19T20:44:04.046Z,7.30
2019-02-19T20:46:32.173Z,7.50
2019-02-19T20:49:00.230Z,7.57
2019-02-19T20:51:36.126Z,6.47
2019-02-19T20:53:58.254Z,6.03
2019-02-19T20:56:26.376Z,9.73
2019-02-19T20:58:54.529Z,7.73
2019-02-19T21:01:22.660Z,8.10
2019-02-19T21:03:50.737Z,4.57
2019-02-19T21:06:18.755Z,8.47
2019-02-19T21:08:46.815Z,7.20
2019-02-19T21:11:14.874Z,6.73
2019-02-19T21:13:42.948Z,9.27
2019-02-19T21:16:10.954Z,8.50
2019-02-19T21:18:39.021Z,7.17
2019-02-19T21:21:07.112Z,8.33
2019-02-19T21:23:35.160Z,6.40
2019-02-19T21:26:03.132Z,8.60
2019-02-19T21:28:32.131Z,4.90
2019-02-19T21:31:00.059Z,7.60
2019-02-19T21:33:28.174Z,6.77
2019-02-19T21:35:57.888Z,6.03
2019-02-19T21:38:26.083Z,8.47
2019-02-19T21:40:54.047Z,7.60
2019-02-19T21:43:22.035Z,8.10
2019-02-19T21:45:49.994Z,7.83
2019-02-19T21:48:18.060Z,7.63
2019-02-19T21:50:46.219Z,6.50
2019-02-19T21:53:14.236Z,7.03
2019-02-19T21:55:42.310Z,4.87
2019-02-19T21:58:10.246Z,7.50
2019-02-19T22:00:38.252Z,6.30
2019-02-19T22:03:06.319Z,6.37
2019-02-19T22:05:34.355Z,5.03
2019-02-19T22:08:02.376Z,8.33
2019-02-19T22:10:30.430Z,3.27
2019-02-19T22:12:58.468Z,8.57
2019-02-19T22:15:26.537Z,5.57
2019-02-19T22:17:54.643Z,4.77
2019-02-19T22:20:50.571Z,9.37
2019-02-19T22:23:18.542Z,5.63
2019-02-19T22:25:46.611Z,7.90
2019-02-19T22:28:14.604Z,7.50
2019-02-19T22:30:42.623Z,8.70
2019-02-19T22:33:10.652Z,4.97
2019-02-19T22:35:39.610Z,5.83
2019-02-19T22:38:07.797Z,6.67
2019-02-19T22:40:35.864Z,4.13
2019-02-19T22:43:03.915Z,8.90
2019-02-19T22:45:31.835Z,7.17
2019-02-19T22:48:00.366Z,3.57
2019-02-19T22:50:28.335Z,7.80
2019-02-19T22:52:56.491Z,6.63
2019-02-19T22:55:52.066Z,6.03
2019-02-19T22:58:19.992Z,6.10
2019-02-19T23:01:12.223Z,4.43
2019-02-19T23:03:40.595Z,3.97
2019-02-19T23:06:08.692Z,4.43
2019-02-19T23:08:36.855Z,4.83
2019-02-19T23:11:04.860Z,5.37
2019-02-19T23:13:32.903Z,4.67
2019-02-19T23:16:00.909Z,3.97
2019-02-19T23:18:28.935Z,6.70
2019-02-19T23:20:56.980Z,6.20
2019-02-19T23:23:25.053Z,3.40
2019-02-19T23:25:53.195Z,6.60
2019-02-19T23:28:21.259Z,5.33
2019-02-19T23:30:49.251Z,5.90
2019-02-19T23:33:17.306Z,4.60
2019-02-19T23:35:49.342Z,4.13
2019-02-19T23:38:17.374Z,4.53
2019-02-19T23:40:45.384Z,3.60
2019-02-19T23:43:13.451Z,5.80
2019-02-19T23:45:41.447Z,5.33
2019-02-19T23:48:09.359Z,3.30
2019-02-19T23:50:37.340Z,4.73
2019-02-19T23:53:05.331Z,6.10
2019-02-19T23:55:33.834Z,7.27
2019-02-19T23:58:01.869Z,5.17
